GB-0053 weather

CLOSED Lower Manor Farm Airstrip
Chickerell, England, United Kingdom

Public forecast

Using degrees Celsius for public forecast. Weather courtesy of forecast.io.

Closest aviation weather report (METAR) to Lower Manor Farm Airstrip

Closest report is RNAS Yeovilton, 23.4 nm (43.3 km) NNW. Retrieved 2020/08/05 13:21 UTC (8 minutes ago):

EGDY 051321Z 18017KT 9999 SCT012 BKN015 20/16 Q1012 BECMG BKN015 RMK GRN BECMG WHT

Closest aviation forecast (TAF) to Lower Manor Farm Airstrip

Forecast is more than 12 hours old.

Closest forecast is RNAS Yeovilton, 23.4 nm (43.3 km) NNW. Retrieved 2020/07/01 18:15 UTC (1 month ago):

TAF TAF EGDY 010110Z 3018/0103 CNL